Time;durP1;ratioP1;P1;durP2;ratioP2;P2;SDS_P1;SDS_P2;PMS_P1;PMS_P2;Temp;Humidity;BMP_temperature;BMP_pressure;BME280_temperature;BME280_humidity;BME280_pressure;Samples;Min_cycle;Max_cycle;Signal;HPM_P1;HPM_P2
2022/10/16 00:02:21;;;;;;;7.95;4.40;;;;;;;12.30;100.00;100930.97;5049675;28;20063;-70
2022/10/16 00:04:46;;;;;;;8.13;4.00;;;;;;;12.28;100.00;100936.72;5050184;28;20115;-72
2022/10/16 00:07:11;;;;;;;9.75;4.00;;;;;;;12.25;100.00;100937.19;5047815;28;20033;-71
2022/10/16 00:09:36;;;;;;;8.13;4.03;;;;;;;12.24;100.00;100924.50;5043735;28;20345;-71
2022/10/16 00:12:04;;;;;;;8.10;4.13;;;;;;;12.22;100.00;100928.59;5049568;28;20040;-72
2022/10/16 00:14:29;;;;;;;8.60;5.05;;;;;;;12.18;100.00;100931.81;5050677;28;20076;-72
2022/10/16 00:16:55;;;;;;;8.00;4.68;;;;;;;12.17;100.00;100937.56;5047375;28;20056;-72
2022/10/16 00:19:20;;;;;;;7.60;4.50;;;;;;;12.15;100.00;100931.44;5049601;28;20128;-72
2022/10/16 00:21:45;;;;;;;7.80;4.55;;;;;;;12.14;100.00;100938.03;5045226;28;20025;-72
2022/10/16 00:24:11;;;;;;;7.70;4.15;;;;;;;12.17;100.00;100945.84;5040704;28;20384;-72
2022/10/16 00:26:38;;;;;;;8.95;4.53;;;;;;;12.12;100.00;100932.78;5048133;28;20040;-73
2022/10/16 00:29:04;;;;;;;11.30;4.45;;;;;;;12.10;100.00;100937.66;5049985;28;20033;-69
2022/10/16 00:31:29;;;;;;;12.45;4.45;;;;;;;12.08;100.00;100939.00;5049750;28;20344;-72
2022/10/16 00:33:55;;;;;;;7.80;4.53;;;;;;;12.04;100.00;100935.03;5049938;28;20029;-73
2022/10/16 00:36:23;;;;;;;7.50;3.95;;;;;;;12.02;100.00;100935.28;5047367;28;20194;-72
2022/10/16 00:38:54;;;;;;;6.70;4.22;;;;;;;12.00;100.00;100942.09;5047667;28;20091;-71
2022/10/16 00:41:21;;;;;;;7.78;3.90;;;;;;;11.98;100.00;100938.75;5048963;28;20115;-73
2022/10/16 00:43:48;;;;;;;8.50;4.50;;;;;;;11.98;100.00;100934.09;5050367;28;20029;-73
2022/10/16 00:46:18;;;;;;;8.60;4.38;;;;;;;11.97;100.00;100937.91;5048207;28;20033;-73
2022/10/16 00:49:08;;;;;;;7.30;4.30;;;;;;;11.97;100.00;100943.41;5048780;28;20693;-72
2022/10/16 00:51:36;;;;;;;6.45;4.28;;;;;;;11.91;100.00;100945.22;5047583;28;20040;-72
2022/10/16 00:54:08;;;;;;;7.32;4.07;;;;;;;11.90;100.00;100939.91;5048666;28;20037;-72
2022/10/16 00:56:33;;;;;;;7.68;4.25;;;;;;;11.87;100.00;100941.25;5049069;28;20094;-71
2022/10/16 00:59:01;;;;;;;7.80;4.55;;;;;;;11.84;100.00;100941.72;5049113;28;20029;-72
2022/10/16 01:01:26;;;;;;;6.95;4.60;;;;;;;11.85;100.00;100943.38;5048136;28;20353;-72
2022/10/16 01:03:52;;;;;;;8.18;4.10;;;;;;;11.83;100.00;100940.03;5046425;28;20055;-71
2022/10/16 01:06:28;;;;;;;6.53;3.83;;;;;;;11.82;100.00;100943.88;5036584;28;20691;-72
2022/10/16 01:09:24;;;;;;;7.18;4.35;;;;;;;11.82;100.00;100932.88;5041774;28;20106;-71
2022/10/16 01:12:04;;;;;;;7.32;4.07;;;;;;;11.81;100.00;100933.91;5049045;28;20036;-70
2022/10/16 01:14:52;;;;;;;7.20;3.78;;;;;;;11.77;100.00;100929.94;5049503;28;20048;-72
2022/10/16 01:17:26;;;;;;;7.88;4.38;;;;;;;11.79;100.00;100938.81;5045882;28;20497;-72
2022/10/16 01:20:04;;;;;;;6.55;3.85;;;;;;;11.78;100.00;100937.13;5028898;28;20087;-72
2022/10/16 01:22:39;;;;;;;6.80;3.67;;;;;;;11.78;100.00;100942.63;5033079;28;20028;-69
2022/10/16 01:25:11;;;;;;;7.28;3.85;;;;;;;11.77;100.00;100946.47;5046320;28;20056;-71
2022/10/16 01:27:39;;;;;;;7.40;3.78;;;;;;;11.77;100.00;100942.88;5048357;28;20087;-69
2022/10/16 01:30:15;;;;;;;6.75;3.60;;;;;;;11.78;100.00;100948.13;5047703;28;20029;-70
2022/10/16 01:33:07;;;;;;;8.45;4.13;;;;;;;11.81;100.00;100939.41;5048564;28;20044;-72
2022/10/16 01:35:45;;;;;;;7.55;4.25;;;;;;;11.80;100.00;100934.97;5045355;28;20459;-71
2022/10/16 01:38:18;;;;;;;9.25;4.20;;;;;;;11.81;100.00;100939.41;5047052;28;20112;-71
2022/10/16 01:40:57;;;;;;;5.90;3.67;;;;;;;11.83;100.00;100937.28;5047708;28;20033;-72
2022/10/16 01:43:28;;;;;;;9.23;3.90;;;;;;;11.83;100.00;100933.69;5028986;28;20041;-72
2022/10/16 01:45:55;;;;;;;5.85;3.42;;;;;;;11.84;100.00;100938.97;5040829;28;20072;-71
2022/10/16 01:48:23;;;;;;;6.75;3.83;;;;;;;11.88;100.00;100942.09;5046432;28;20025;-70
2022/10/16 01:51:01;;;;;;;5.53;3.40;;;;;;;11.85;100.00;100943.38;5045940;28;20495;-69
2022/10/16 01:53:27;;;;;;;6.55;3.55;;;;;;;11.83;100.00;100940.03;5048406;28;20029;-72
2022/10/16 01:55:55;;;;;;;5.72;3.40;;;;;;;11.83;100.00;100929.03;5044535;28;20040;-69
2022/10/16 01:58:23;;;;;;;9.18;3.80;;;;;;;11.83;100.00;100942.78;5043154;28;20057;-70
2022/10/16 02:00:50;;;;;;;6.15;3.20;;;;;;;11.84;100.00;100944.47;5047395;28;20502;-72
2022/10/16 02:03:18;;;;;;;5.47;3.30;;;;;;;11.87;100.00;100935.75;5048844;28;20036;-72
2022/10/16 02:05:51;;;;;;;6.05;3.45;;;;;;;11.89;100.00;100949.25;5047057;28;20013;-72
2022/10/16 02:08:17;;;;;;;5.28;3.40;;;;;;;11.90;100.00;100940.75;5047205;28;20025;-72
2022/10/16 02:10:42;;;;;;;5.90;3.10;;;;;;;11.91;100.00;100941.59;5032519;28;20419;-72
2022/10/16 02:13:18;;;;;;;6.53;3.13;;;;;;;11.91;100.00;100950.72;5046508;28;20045;-72
2022/10/16 02:15:44;;;;;;;5.22;3.00;;;;;;;11.91;100.00;100956.22;5046284;28;20542;-71
2022/10/16 02:18:10;;;;;;;5.68;3.10;;;;;;;11.95;100.00;100951.06;5047694;28;20036;-71
2022/10/16 02:20:50;;;;;;;6.22;3.10;;;;;;;11.96;100.00;100955.47;5046472;28;20647;-71
2022/10/16 02:23:24;;;;;;;5.28;3.13;;;;;;;11.93;100.00;100955.97;5042819;28;20036;-72
2022/10/16 02:25:50;;;;;;;6.45;3.00;;;;;;;11.93;100.00;100945.81;5035983;28;20036;-72
2022/10/16 02:28:25;;;;;;;5.47;2.60;;;;;;;11.92;100.00;100946.88;5047943;28;20054;-72
2022/10/16 02:30:57;;;;;;;5.32;3.10;;;;;;;11.91;100.00;100944.34;5047296;28;20025;-71
2022/10/16 02:33:24;;;;;;;4.32;2.92;;;;;;;11.89;100.00;100933.59;5047727;28;20021;-69
2022/10/16 02:35:51;;;;;;;5.00;2.47;;;;;;;11.86;100.00;100945.09;5044231;28;20033;-72
2022/10/16 02:38:18;;;;;;;7.15;3.17;;;;;;;11.82;100.00;100954.88;5047468;28;20493;-70
2022/10/16 02:40:44;;;;;;;6.63;2.67;;;;;;;11.80;100.00;100954.22;5047384;28;20039;-71
2022/10/16 02:43:10;;;;;;;7.47;2.60;;;;;;;11.77;100.00;100960.22;5046392;28;20033;-72
2022/10/16 02:45:36;;;;;;;5.35;2.78;;;;;;;11.76;100.00;100963.19;5045323;28;20040;-71
2022/10/16 02:48:01;;;;;;;7.13;2.90;;;;;;;11.76;100.00;100958.56;5046940;28;20376;-72
2022/10/16 02:50:27;;;;;;;7.25;3.20;;;;;;;11.73;100.00;100950.75;5045358;28;20025;-72
2022/10/16 02:52:52;;;;;;;5.53;3.20;;;;;;;11.75;100.00;100945.00;5046417;28;20382;-70
2022/10/16 02:55:18;;;;;;;6.95;2.90;;;;;;;11.68;100.00;100943.22;5047082;28;20021;-69
2022/10/16 02:57:43;;;;;;;6.80;2.70;;;;;;;11.65;100.00;100943.66;5046900;28;20031;-72
2022/10/16 03:00:13;;;;;;;6.60;3.30;;;;;;;11.63;100.00;100945.81;5047086;28;20396;-70
2022/10/16 03:02:39;;;;;;;5.95;2.92;;;;;;;11.61;100.00;100942.47;5046881;28;20040;-71
2022/10/16 03:05:05;;;;;;;4.82;2.60;;;;;;;11.58;100.00;100947.59;5043569;28;20021;-71
2022/10/16 03:07:30;;;;;;;6.38;2.80;;;;;;;11.59;100.00;100954.78;5046014;28;20021;-72
2022/10/16 03:09:55;;;;;;;5.40;2.80;;;;;;;11.57;100.00;100948.69;5046443;28;20491;-69
2022/10/16 03:12:21;;;;;;;5.70;2.88;;;;;;;11.55;100.00;100945.31;5044138;28;20047;-72
2022/10/16 03:14:47;;;;;;;6.13;2.78;;;;;;;11.54;100.00;100946.41;5034293;28;20033;-72
2022/10/16 03:17:12;;;;;;;5.00;2.92;;;;;;;11.53;100.00;100951.06;5045577;28;20033;-69
2022/10/16 03:19:38;;;;;;;5.80;2.75;;;;;;;11.51;100.00;100955.13;5047271;28;20553;-72
2022/10/16 03:22:03;;;;;;;7.60;2.60;;;;;;;11.51;100.00;100966.97;5045557;28;20075;-72
2022/10/16 03:24:29;;;;;;;6.20;2.75;;;;;;;11.52;100.00;100965.06;5041694;28;20147;-72
2022/10/16 03:26:54;;;;;;;4.72;2.72;;;;;;;11.50;100.00;100970.78;5046794;28;20495;-72
2022/10/16 03:29:19;;;;;;;7.03;3.70;;;;;;;11.47;100.00;100981.41;5046845;28;20039;-71
2022/10/16 03:31:44;;;;;;;6.30;3.15;;;;;;;11.48;100.00;100986.69;5045487;28;20075;-71
2022/10/16 03:34:10;;;;;;;4.07;2.65;;;;;;;11.49;100.00;100987.50;5045704;28;20044;-71
2022/10/16 03:36:35;;;;;;;4.85;2.72;;;;;;;11.48;100.00;100994.09;5044155;28;20029;-72
2022/10/16 03:39:01;;;;;;;6.80;3.08;;;;;;;11.47;100.00;100997.94;5044444;28;20033;-72
2022/10/16 03:41:26;;;;;;;5.60;2.67;;;;;;;11.46;100.00;100994.34;5046160;28;20036;-72
2022/10/16 03:43:51;;;;;;;5.30;2.65;;;;;;;11.46;100.00;100966.00;5045445;28;20052;-71
2022/10/16 03:46:17;;;;;;;4.80;2.70;;;;;;;11.46;100.00;100972.34;5045377;28;20372;-69
2022/10/16 03:48:42;;;;;;;6.53;2.47;;;;;;;11.50;100.00;100978.19;5045451;28;20033;-71
2022/10/16 03:51:07;;;;;;;5.88;2.70;;;;;;;11.50;100.00;100983.69;5044743;28;20350;-72
2022/10/16 03:53:32;;;;;;;4.93;2.38;;;;;;;11.54;100.00;100982.16;5045950;28;20154;-72
2022/10/16 03:55:58;;;;;;;5.03;2.58;;;;;;;11.55;100.00;100983.81;5044188;28;20036;-70
2022/10/16 03:58:23;;;;;;;4.72;2.85;;;;;;;11.55;100.00;101003.91;5045735;28;20021;-72
2022/10/16 04:00:49;;;;;;;4.55;2.40;;;;;;;11.56;100.00;101002.88;5046117;28;20491;-69
2022/10/16 04:03:14;;;;;;;3.67;2.40;;;;;;;11.57;100.00;100987.19;5047362;28;20029;-71
2022/10/16 04:05:39;;;;;;;5.95;2.38;;;;;;;11.57;100.00;100999.03;5044959;28;20115;-72
2022/10/16 04:08:05;;;;;;;4.07;2.40;;;;;;;11.59;100.00;101001.53;5044242;28;20506;-71
2022/10/16 04:10:30;;;;;;;4.30;2.22;;;;;;;11.58;100.00;100997.97;5044279;28;20159;-71
2022/10/16 04:12:56;;;;;;;7.55;2.40;;;;;;;11.62;100.00;100999.19;5044966;28;20041;-72
2022/10/16 04:15:22;;;;;;;4.15;2.20;;;;;;;11.60;100.00;101004.06;5046281;28;20025;-71
2022/10/16 04:17:48;;;;;;;5.30;2.50;;;;;;;11.62;100.00;101014.84;5046354;28;20079;-69
2022/10/16 04:20:13;;;;;;;4.15;2.40;;;;;;;11.62;100.00;101009.34;5044232;28;20044;-71
2022/10/16 04:22:38;;;;;;;3.88;2.30;;;;;;;11.62;100.00;101003.84;5045681;28;20154;-71
2022/10/16 04:25:04;;;;;;;5.07;2.38;;;;;;;11.61;100.00;101015.94;5045254;28;20064;-72
2022/10/16 04:27:31;;;;;;;6.18;2.20;;;;;;;11.64;100.00;101012.69;5045484;28;20032;-71
2022/10/16 04:29:57;;;;;;;6.28;2.42;;;;;;;11.62;100.00;101006.59;5029221;28;20034;-71
2022/10/16 04:32:22;;;;;;;4.68;2.17;;;;;;;11.61;100.00;101007.69;5043036;28;20025;-71
2022/10/16 04:34:47;;;;;;;5.72;2.72;;;;;;;11.62;100.00;101001.09;5033550;28;20705;-72
2022/10/16 04:37:12;;;;;;;5.35;2.50;;;;;;;11.62;100.00;101003.84;5035960;28;20033;-70
2022/10/16 04:39:38;;;;;;;7.07;2.30;;;;;;;11.61;100.00;101019.50;5040831;28;20048;-71
2022/10/16 04:42:03;;;;;;;7.20;2.50;;;;;;;11.64;100.00;101010.78;5048483;28;20036;-71
2022/10/16 04:44:28;;;;;;;6.57;2.97;;;;;;;11.63;100.00;101022.84;5049364;28;20052;-70
2022/10/16 04:46:53;;;;;;;4.85;2.67;;;;;;;11.62;100.00;101015.69;5047622;28;20035;-69
2022/10/16 04:49:19;;;;;;;7.20;2.90;;;;;;;11.62;100.00;101025.84;5048869;28;20033;-71
2022/10/16 04:51:44;;;;;;;6.25;2.70;;;;;;;11.61;100.00;101033.28;5048042;28;20525;-72
2022/10/16 04:54:10;;;;;;;7.35;2.47;;;;;;;11.61;100.00;101029.69;5046612;28;20027;-69
2022/10/16 04:56:42;;;;;;;4.50;2.78;;;;;;;11.62;100.00;101029.44;5048111;28;20036;-70
2022/10/16 04:59:08;;;;;;;5.78;2.78;;;;;;;11.61;100.00;101040.69;5048763;28;20500;-71
2022/10/16 05:01:33;;;;;;;4.70;2.55;;;;;;;11.58;100.00;101043.88;5048422;28;20082;-71
2022/10/16 05:03:59;;;;;;;5.70;3.20;;;;;;;11.57;100.00;101054.06;5049273;28;20025;-71
2022/10/16 05:06:24;;;;;;;5.10;3.10;;;;;;;11.55;100.00;101047.09;5046723;28;20167;-71
2022/10/16 05:08:49;;;;;;;6.50;3.20;;;;;;;11.55;100.00;101061.69;5048773;28;20025;-71
2022/10/16 05:11:14;;;;;;;5.75;3.20;;;;;;;11.53;100.00;101061.09;5048466;28;20112;-70
2022/10/16 05:13:40;;;;;;;5.95;2.90;;;;;;;11.53;100.00;101057.50;5046576;28;20491;-71
2022/10/16 05:16:05;;;;;;;5.70;3.00;;;;;;;11.51;100.00;101055.00;5048210;28;20037;-72
2022/10/16 05:18:31;;;;;;;7.05;2.95;;;;;;;11.49;100.00;101054.38;5049396;28;20033;-71
2022/10/16 05:20:56;;;;;;;5.53;3.03;;;;;;;11.48;100.00;101057.34;5046573;28;20037;-71
2022/10/16 05:23:22;;;;;;;7.03;3.17;;;;;;;11.48;100.00;101054.59;5047833;28;20036;-72
2022/10/16 05:25:58;;;;;;;6.32;2.83;;;;;;;11.48;100.00;101065.59;5048945;28;20044;-72
2022/10/16 05:28:24;;;;;;;6.53;3.05;;;;;;;11.44;100.00;101077.06;5048511;28;20112;-72
2022/10/16 05:30:50;;;;;;;5.68;3.20;;;;;;;11.43;100.00;101080.88;5047988;28;20052;-72
2022/10/16 05:33:15;;;;;;;6.07;2.95;;;;;;;11.42;100.00;101087.47;5047288;28;20375;-71
2022/10/16 05:35:40;;;;;;;5.35;3.40;;;;;;;11.41;100.00;101091.28;5046646;28;20582;-71
2022/10/16 05:38:06;;;;;;;6.28;3.58;;;;;;;11.42;100.00;101098.47;5046422;28;20426;-71
2022/10/16 05:40:31;;;;;;;8.20;3.22;;;;;;;11.41;100.00;101099.53;5047735;28;20041;-71
2022/10/16 05:42:56;;;;;;;5.35;3.47;;;;;;;11.40;100.00;101108.88;5046110;28;20033;-72
2022/10/16 05:45:22;;;;;;;6.88;3.45;;;;;;;11.38;100.00;101113.75;5045925;28;20031;-71
2022/10/16 05:47:47;;;;;;;7.80;3.50;;;;;;;11.38;100.00;101112.91;5036793;28;20383;-72
2022/10/16 05:50:12;;;;;;;6.63;3.17;;;;;;;11.35;100.00;101121.59;5043310;28;20054;-71
2022/10/16 05:52:37;;;;;;;5.82;3.47;;;;;;;11.35;100.00;101122.47;5041561;28;20091;-71
2022/10/16 05:55:03;;;;;;;6.72;3.50;;;;;;;11.33;100.00;101124.59;5047223;28;20035;-72
2022/10/16 05:57:29;;;;;;;11.52;4.35;;;;;;;11.31;100.00;101139.66;5047868;28;20082;-71
2022/10/16 05:59:55;;;;;;;5.60;3.28;;;;;;;11.32;100.00;101138.56;5048180;28;20033;-71
2022/10/16 06:02:20;;;;;;;7.50;3.10;;;;;;;11.26;100.00;101143.09;5046552;28;20025;-70
2022/10/16 06:04:45;;;;;;;7.30;3.28;;;;;;;11.26;100.00;101150.50;5047641;28;20036;-69
2022/10/16 06:07:10;;;;;;;6.27;3.13;;;;;;;11.25;100.00;101146.88;5045930;28;20099;-72
2022/10/16 06:09:36;;;;;;;7.43;3.60;;;;;;;11.22;100.00;101154.75;5046807;28;20291;-72
2022/10/16 06:12:01;;;;;;;8.40;3.80;;;;;;;11.21;100.00;101153.09;5047323;28;20081;-68
2022/10/16 06:14:26;;;;;;;6.10;3.60;;;;;;;11.17;100.00;101150.78;5048416;28;20078;-69
2022/10/16 06:16:52;;;;;;;6.53;3.88;;;;;;;11.14;100.00;101162.22;5045847;28;20033;-72
2022/10/16 06:19:18;;;;;;;8.60;3.75;;;;;;;11.15;100.00;101166.66;5047131;28;20463;-72
2022/10/16 06:21:43;;;;;;;6.45;3.42;;;;;;;11.15;100.00;101168.53;5040839;28;20036;-72
2022/10/16 06:24:09;;;;;;;7.63;3.70;;;;;;;11.13;100.00;101171.53;5046836;28;20025;-71
2022/10/16 06:26:34;;;;;;;6.82;3.55;;;;;;;11.14;100.00;101167.72;5045529;28;20033;-71
2022/10/16 06:29:00;;;;;;;8.65;4.00;;;;;;;11.14;100.00;101177.88;5046828;28;20059;-71
2022/10/16 06:31:28;;;;;;;10.30;3.80;;;;;;;11.13;100.00;101184.44;5046053;28;20119;-72
2022/10/16 06:33:54;;;;;;;8.32;3.53;;;;;;;11.12;100.00;101185.50;5046780;28;20025;-70
2022/10/16 06:36:20;;;;;;;7.25;3.50;;;;;;;11.12;100.00;101185.50;5044677;28;20050;-69
2022/10/16 06:38:46;;;;;;;8.50;3.53;;;;;;;11.18;100.00;101190.09;5045306;28;20384;-72
2022/10/16 06:41:14;;;;;;;6.75;3.42;;;;;;;11.19;100.00;101191.78;5047589;28;20130;-72
2022/10/16 06:43:39;;;;;;;7.45;3.60;;;;;;;11.22;100.00;101205.09;5047795;28;20032;-72
2022/10/16 06:46:07;;;;;;;9.15;3.80;;;;;;;11.24;100.00;101193.84;5045802;28;21650;-72
2022/10/16 06:48:33;;;;;;;7.28;3.33;;;;;;;11.31;100.00;101206.47;5032094;28;20048;-72
2022/10/16 06:51:02;;;;;;;7.90;3.75;;;;;;;11.35;100.00;101212.34;5045387;28;20456;-70
2022/10/16 06:53:31;;;;;;;8.85;4.10;;;;;;;11.40;100.00;101213.38;5045910;28;20476;-72
2022/10/16 06:55:57;;;;;;;6.47;3.83;;;;;;;11.46;100.00;101213.53;5032589;28;20041;-72
2022/10/16 06:58:22;;;;;;;7.72;4.03;;;;;;;11.52;100.00;101221.69;5038240;28;20036;-72
2022/10/16 07:00:48;;;;;;;10.35;4.10;;;;;;;11.61;100.00;101222.25;5047084;28;20111;-71
2022/10/16 07:03:13;;;;;;;9.05;3.92;;;;;;;11.70;100.00;101215.34;5045940;28;20052;-73
2022/10/16 07:05:40;;;;;;;8.00;3.70;;;;;;;11.84;100.00;101238.09;5041547;28;20155;-74
2022/10/16 07:08:06;;;;;;;7.78;3.67;;;;;;;11.96;100.00;101236.25;5044149;28;20024;-72
2022/10/16 07:10:32;;;;;;;8.88;3.80;;;;;;;12.10;100.00;101245.19;5046508;28;20502;-72
2022/10/16 07:12:57;;;;;;;7.00;3.45;;;;;;;12.22;100.00;101240.59;5038948;28;20754;-72
2022/10/16 07:15:23;;;;;;;7.43;3.53;;;;;;;12.33;100.00;101247.22;5043813;28;20060;-70
2022/10/16 07:17:48;;;;;;;7.75;3.70;;;;;;;12.42;100.00;101243.94;5046669;28;20102;-70
2022/10/16 07:20:13;;;;;;;8.70;3.80;;;;;;;12.53;100.00;101247.81;5044675;28;20037;-72
2022/10/16 07:22:39;;;;;;;6.95;3.42;;;;;;;12.62;100.00;101251.03;5040878;28;20133;-70
2022/10/16 07:25:05;;;;;;;7.50;3.17;;;;;;;12.71;100.00;101268.94;5046066;28;20033;-70
2022/10/16 07:27:30;;;;;;;7.50;2.97;;;;;;;12.78;100.00;101272.44;5045654;28;20036;-72
2022/10/16 07:29:55;;;;;;;6.10;3.05;;;;;;;12.80;100.00;101275.78;5045333;28;20406;-72
2022/10/16 07:32:20;;;;;;;7.90;2.90;;;;;;;12.84;100.00;101276.19;5034444;28;20188;-72
2022/10/16 07:34:46;;;;;;;7.30;3.33;;;;;;;12.84;100.00;101288.03;5038604;28;20648;-72
2022/10/16 07:37:11;;;;;;;6.10;2.78;;;;;;;12.84;100.00;101285.28;5044842;28;20703;-72
2022/10/16 07:39:36;;;;;;;9.05;3.13;;;;;;;12.87;100.00;101286.72;5044840;28;20065;-71
2022/10/16 07:42:02;;;;;;;6.63;3.05;;;;;;;12.90;100.00;101284.34;5036650;28;20472;-69
2022/10/16 07:44:27;;;;;;;10.57;3.22;;;;;;;13.00;100.00;101297.56;5046829;28;20025;-72
2022/10/16 07:46:52;;;;;;;7.50;3.42;;;;;;;13.11;100.00;101290.38;5045849;28;20082;-70
2022/10/16 07:49:18;;;;;;;8.77;3.88;;;;;;;13.20;100.00;101303.59;5045503;28;20090;-72
2022/10/16 07:51:43;;;;;;;6.60;3.10;;;;;;;13.33;100.00;101302.56;5044700;28;20056;-72
2022/10/16 07:54:09;;;;;;;7.80;3.25;;;;;;;13.50;100.00;101305.47;5045354;28;20120;-71
2022/10/16 07:56:35;;;;;;;6.43;2.80;;;;;;;13.67;100.00;101311.09;5045130;28;20487;-72
2022/10/16 07:59:00;;;;;;;8.27;3.55;;;;;;;13.79;100.00;101311.97;5039346;28;20029;-71
2022/10/16 08:01:26;;;;;;;7.45;2.70;;;;;;;13.85;100.00;101318.44;5041717;28;20035;-70
2022/10/16 08:03:52;;;;;;;7.75;3.10;;;;;;;13.84;100.00;101312.06;5046292;28;20029;-70
2022/10/16 08:06:19;;;;;;;6.63;3.10;;;;;;;13.86;100.00;101318.19;5044950;28;20060;-71
2022/10/16 08:08:45;;;;;;;6.93;2.80;;;;;;;13.90;99.48;101313.88;5043684;28;20021;-72
2022/10/16 08:11:10;;;;;;;6.93;3.00;;;;;;;13.98;99.65;101321.75;5047280;28;20029;-72
2022/10/16 08:13:36;;;;;;;7.63;2.85;;;;;;;14.19;100.00;101324.97;5049519;28;20048;-71
2022/10/16 08:16:01;;;;;;;7.53;3.28;;;;;;;14.51;97.13;101344.78;5050028;28;20106;-71
2022/10/16 08:18:27;;;;;;;6.28;2.80;;;;;;;14.72;94.99;101355.16;5050472;28;20079;-71
2022/10/16 08:20:57;;;;;;;7.03;3.13;;;;;;;14.70;94.68;101353.72;5047240;28;20105;-70
2022/10/16 08:23:23;;;;;;;10.05;3.25;;;;;;;14.63;94.74;101355.78;5049032;28;20136;-70
2022/10/16 08:25:48;;;;;;;6.47;2.80;;;;;;;14.58;95.52;101361.22;5046739;28;20547;-70
2022/10/16 08:28:13;;;;;;;6.38;2.80;;;;;;;14.59;94.81;101360.13;5031773;28;20033;-71
2022/10/16 08:30:39;;;;;;;5.13;2.90;;;;;;;14.68;95.00;101355.88;5027980;28;20525;-71
2022/10/16 08:33:05;;;;;;;8.02;3.20;;;;;;;14.78;93.57;101364.38;5047844;28;20029;-71
2022/10/16 08:35:31;;;;;;;6.30;3.00;;;;;;;15.25;92.26;101365.00;5046906;28;20025;-70
2022/10/16 08:37:56;;;;;;;5.80;2.50;;;;;;;15.84;88.20;101372.97;5045499;28;20171;-70
2022/10/16 08:40:26;;;;;;;7.20;2.67;;;;;;;16.66;84.26;101363.84;5028159;28;20025;-70
2022/10/16 08:43:17;;;;;;;6.63;2.22;;;;;;;17.98;78.46;101360.72;5027817;28;20021;-70
2022/10/16 08:45:45;;;;;;;4.15;2.03;;;;;;;19.82;70.19;101354.63;5035001;28;20047;-70
2022/10/16 08:48:27;;;;;;;7.03;2.88;;;;;;;20.91;64.63;101370.78;5048698;28;20051;-70
2022/10/16 08:50:53;;;;;;;6.53;1.90;;;;;;;21.61;61.29;101377.03;5048544;28;20024;-69
2022/10/16 08:53:33;;;;;;;5.15;2.00;;;;;;;22.50;62.07;101385.97;5048639;28;20379;-69
2022/10/16 08:55:58;;;;;;;3.88;1.73;;;;;;;23.27;55.38;101385.00;5033370;28;20373;-69
2022/10/16 08:58:28;;;;;;;4.15;2.00;;;;;;;23.27;55.50;101385.84;5046967;28;20036;-69
2022/10/16 09:00:56;;;;;;;8.30;2.08;;;;;;;22.66;54.29;101394.22;5048357;28;20032;-69
2022/10/16 09:03:43;;;;;;;5.60;1.85;;;;;;;22.74;58.73;101388.75;5049182;28;20044;-69
2022/10/16 09:06:45;;;;;;;7.82;1.80;;;;;;;23.80;55.74;101390.34;5047441;28;20033;-69
2022/10/16 09:09:20;;;;;;;6.15;2.15;;;;;;;25.02;49.81;101389.94;5035182;28;20033;-69
2022/10/16 09:11:57;;;;;;;8.43;1.85;;;;;;;25.13;49.40;101397.03;5046884;28;20387;-69
2022/10/16 09:14:50;;;;;;;6.45;1.50;;;;;;;25.41;49.15;101402.59;5049583;28;20049;-70
2022/10/16 09:17:32;;;;;;;4.85;1.98;;;;;;;25.21;48.60;101396.28;5038436;28;20061;-70
2022/10/16 09:20:13;;;;;;;6.38;1.90;;;;;;;25.38;51.13;101400.41;5040166;28;20041;-70
2022/10/16 09:22:39;;;;;;;5.35;1.58;;;;;;;25.54;44.65;101401.69;5040153;28;20040;-70
2022/10/16 09:25:12;;;;;;;4.18;1.40;;;;;;;25.88;46.75;101416.06;5047368;28;20427;-70
2022/10/16 09:27:38;;;;;;;7.75;1.58;;;;;;;26.44;43.22;101412.94;5045989;28;20123;-69
2022/10/16 09:30:16;;;;;;;6.05;1.80;;;;;;;26.49;45.21;101424.06;5043023;28;20115;-70
2022/10/16 09:32:42;;;;;;;;;;;;;;;27.53;46.06;101425.19;5046403;28;20025;-69
2022/10/16 09:35:20;;;;;;;6.88;1.77;;;;;;;26.35;44.85;101424.94;5039083;28;19916;-69
2022/10/16 09:37:49;;;;;;;7.40;1.58;;;;;;;25.74;44.93;101420.88;5042077;28;20033;-69
2022/10/16 09:40:26;;;;;;;6.22;1.73;;;;;;;26.35;44.43;101418.50;5040993;28;20047;-69
2022/10/16 09:43:02;;;;;;;6.28;1.58;;;;;;;26.24;42.93;101415.13;5046286;28;20036;-69
2022/10/16 09:45:27;;;;;;;8.85;1.88;;;;;;;26.52;42.71;101415.81;5045891;28;20474;-69
2022/10/16 09:47:53;;;;;;;7.80;1.73;;;;;;;27.07;41.46;101420.13;5046001;28;20154;-69
2022/10/16 09:50:23;;;;;;;6.00;1.40;;;;;;;26.91;41.21;101412.09;5046137;28;20041;-69
2022/10/16 09:52:48;;;;;;;7.90;1.92;;;;;;;26.50;41.76;101417.28;5048379;28;20294;-70
2022/10/16 09:55:16;;;;;;;7.28;1.80;;;;;;;26.37;41.71;101439.56;5048611;28;20879;-70
2022/10/16 09:57:51;;;;;;;7.40;1.75;;;;;;;26.56;44.70;101435.69;5045715;28;20036;-69
2022/10/16 10:00:18;;;;;;;9.65;1.90;;;;;;;26.64;41.42;101432.91;5046040;28;20067;-69
2022/10/16 10:02:43;;;;;;;5.70;1.73;;;;;;;26.64;41.55;101432.91;5048554;28;20032;-69
2022/10/16 10:05:26;;;;;;;9.15;1.92;;;;;;;27.19;42.70;101442.06;5045813;28;20039;-69
2022/10/16 10:08:05;;;;;;;7.93;1.70;;;;;;;27.11;41.72;101429.59;5046714;28;20028;-69
2022/10/16 10:10:34;;;;;;;8.13;2.45;;;;;;;26.87;39.79;101436.50;5047061;28;20478;-69
2022/10/16 10:13:00;;;;;;;7.93;1.58;;;;;;;26.86;40.40;101433.97;5047713;28;20405;-69
2022/10/16 10:15:29;;;;;;;7.43;1.98;;;;;;;27.19;39.38;101433.59;5047426;28;20116;-69
2022/10/16 10:17:57;;;;;;;8.90;1.92;;;;;;;27.54;39.70;101426.84;5045271;28;20040;-69
2022/10/16 10:20:24;;;;;;;8.48;1.80;;;;;;;28.26;38.36;101430.09;5044976;28;20751;-69
2022/10/16 10:22:49;;;;;;;9.77;1.92;;;;;;;28.35;37.20;101434.59;5047374;28;20048;-69
2022/10/16 10:25:38;;;;;;;10.23;2.17;;;;;;;29.18;39.09;101439.69;5047490;28;20029;-69
2022/10/16 10:28:29;;;;;;;7.28;1.80;;;;;;;29.16;38.20;101444.06;5045009;28;20166;-69
2022/10/16 10:31:13;;;;;;;7.40;1.83;;;;;;;29.79;37.32;101452.59;5045895;28;20029;-69
2022/10/16 10:33:49;;;;;;;6.70;1.75;;;;;;;29.75;35.90;101454.44;5047725;28;20029;-69
2022/10/16 10:36:20;;;;;;;6.70;1.65;;;;;;;29.34;36.10;101456.06;5044217;28;20078;-69
2022/10/16 10:38:48;;;;;;;6.50;1.90;;;;;;;29.40;35.30;101458.38;5038505;28;20037;-67
2022/10/16 10:41:28;;;;;;;5.95;1.55;;;;;;;29.77;36.76;101461.44;5034428;28;20079;-67
2022/10/16 10:44:03;;;;;;;7.13;1.77;;;;;;;29.30;34.50;101450.28;5027407;28;20048;-67
2022/10/16 10:46:49;;;;;;;8.43;2.00;;;;;;;29.25;35.96;101458.13;5031633;28;20036;-67
2022/10/16 10:49:48;;;;;;;10.70;2.10;;;;;;;29.19;37.58;101460.31;5046501;28;20043;-67
2022/10/16 10:52:33;;;;;;;8.52;1.73;;;;;;;28.40;36.24;101462.66;5026713;28;20643;-67
2022/10/16 10:55:10;;;;;;;7.63;1.38;;;;;;;28.32;36.88;101451.34;5027264;28;20083;-67
2022/10/16 10:57:50;;;;;;;9.53;2.20;;;;;;;27.80;38.34;101452.25;5037315;28;20059;-67
2022/10/16 11:00:20;;;;;;;9.18;1.60;;;;;;;27.78;39.76;101463.06;5045382;28;20302;-67
2022/10/16 11:02:57;;;;;;;9.45;1.83;;;;;;;28.80;35.01;101461.53;5045436;28;20063;-67
2022/10/16 11:05:39;;;;;;;11.02;2.25;;;;;;;29.67;35.44;101462.69;5045543;28;20514;-67
2022/10/16 11:08:22;;;;;;;7.15;1.77;;;;;;;30.24;34.59;101458.34;5044519;28;20392;-67
2022/10/16 11:10:57;;;;;;;8.00;1.92;;;;;;;29.14;33.99;101471.84;5047043;28;20025;-67
2022/10/16 11:13:42;;;;;;;9.65;2.15;;;;;;;27.09;37.50;101466.59;5046136;28;20049;-67
2022/10/16 11:16:17;;;;;;;7.78;1.60;;;;;;;26.89;37.96;101469.97;5045969;28;20107;-68
2022/10/16 11:19:20;;;;;;;11.48;2.00;;;;;;;26.72;39.18;101473.56;5039233;28;20037;-68
2022/10/16 11:22:22;;;;;;;9.90;2.08;;;;;;;28.13;37.92;101469.53;5044077;28;20502;-67
2022/10/16 11:24:55;;;;;;;9.00;2.20;;;;;;;29.32;33.46;101459.25;5046889;28;20131;-68
2022/10/16 11:27:34;;;;;;;9.25;2.00;;;;;;;29.73;33.32;101460.47;5045718;28;20029;-68
2022/10/16 11:30:05;;;;;;;6.95;1.63;;;;;;;30.01;31.60;101455.06;5042034;28;20033;-68